createdAt,value
2023-04-10T00:01:36.309Z,100738.88
2023-04-10T00:04:04.909Z,100741.44
2023-04-10T00:06:33.286Z,100732.59
2023-04-10T00:09:01.050Z,100742.09
2023-04-10T00:11:29.437Z,100728.41
2023-04-10T00:13:56.867Z,100732.25
2023-04-10T00:16:24.329Z,100735.88
2023-04-10T00:18:51.858Z,100727.56
2023-04-10T00:21:19.242Z,100733.88
2023-04-10T00:23:46.682Z,100728.81
2023-04-10T00:26:14.270Z,100732.13
2023-04-10T00:28:43.575Z,100730.44
2023-04-10T00:31:11.258Z,100743.59
2023-04-10T00:33:38.741Z,100747.06
2023-04-10T00:36:06.653Z,100752.44
2023-04-10T00:38:34.174Z,100742.72
2023-04-10T00:41:01.652Z,100746.41
2023-04-10T00:43:29.121Z,100755.06
2023-04-10T00:45:56.754Z,100752.44
2023-04-10T00:48:24.628Z,100757.59
2023-04-10T00:50:52.261Z,100750.56
2023-04-10T00:53:19.846Z,100747.19
2023-04-10T00:55:48.224Z,100755.66
2023-04-10T00:58:15.837Z,100746.97
2023-04-10T01:00:43.369Z,100746.97
2023-04-10T01:03:13.189Z,100749.50
2023-04-10T01:05:53.215Z,100742.66
2023-04-10T01:08:30.820Z,100739.78
2023-04-10T01:11:13.538Z,100747.63
2023-04-10T01:13:46.572Z,100741.97
2023-04-10T01:16:24.976Z,100738.44
2023-04-10T01:19:14.887Z,100732.56
2023-04-10T01:21:42.816Z,100732.91
2023-04-10T01:24:36.109Z,100734.19
2023-04-10T01:27:32.143Z,100749.69
2023-04-10T01:30:02.941Z,100735.31
2023-04-10T01:32:35.677Z,100737.81
2023-04-10T01:35:07.574Z,100736.88
2023-04-10T01:37:41.164Z,100733.34
2023-04-10T01:40:14.417Z,100738.38
2023-04-10T01:42:53.245Z,100746.59
2023-04-10T01:45:29.033Z,100753.31
2023-04-10T01:47:56.993Z,100753.91
2023-04-10T01:50:26.074Z,100741.63
2023-04-10T01:52:54.154Z,100751.97
2023-04-10T01:55:24.939Z,100749.16
2023-04-10T01:57:57.221Z,100748.28
2023-04-10T02:00:26.012Z,100757.63
2023-04-10T02:02:54.329Z,100743.81
2023-04-10T02:05:26.310Z,100744.50
2023-04-10T02:08:02.313Z,100738.41
2023-04-10T02:10:32.772Z,100741.81
2023-04-10T02:13:05.622Z,100726.25
2023-04-10T02:15:35.239Z,100739.47
2023-04-10T02:18:08.387Z,100763.56
2023-04-10T02:20:36.309Z,100749.84
2023-04-10T02:23:06.778Z,100744.91
2023-04-10T02:25:35.170Z,100757.06
2023-04-10T02:28:07.068Z,100752.72
2023-04-10T02:30:35.290Z,100748.13
2023-04-10T02:33:03.098Z,100733.78
2023-04-10T02:35:32.478Z,100750.31
2023-04-10T02:38:00.072Z,100749.19
2023-04-10T02:40:27.895Z,100742.97
2023-04-10T02:43:13.289Z,100740.22
2023-04-10T02:45:41.970Z,100749.69
2023-04-10T02:48:11.757Z,100748.66
2023-04-10T02:50:39.330Z,100737.31
2023-04-10T02:53:06.792Z,100743.44
2023-04-10T02:55:37.005Z,100746.97
2023-04-10T02:58:04.635Z,100742.56
2023-04-10T03:00:32.064Z,100749.59
2023-04-10T03:03:11.006Z,100740.22
2023-04-10T03:05:49.672Z,100739.50
2023-04-10T03:08:21.256Z,100746.31
2023-04-10T03:10:48.869Z,100750.66
2023-04-10T03:13:16.815Z,100755.31
2023-04-10T03:15:44.536Z,100760.03
2023-04-10T03:18:12.095Z,100753.59
2023-04-10T03:20:43.769Z,100750.16
2023-04-10T03:23:12.657Z,100753.75
2023-04-10T03:25:41.315Z,100753.91
2023-04-10T03:28:09.737Z,100747.09
2023-04-10T03:30:37.606Z,100751.63
2023-04-10T03:33:05.159Z,100755.81
2023-04-10T03:35:32.766Z,100748.59
2023-04-10T03:38:00.745Z,100740.75
2023-04-10T03:40:28.354Z,100743.53
2023-04-10T03:42:58.686Z,100739.25
2023-04-10T03:45:26.238Z,100733.59
2023-04-10T03:47:53.861Z,100731.78
2023-04-10T03:50:21.949Z,100731.59
2023-04-10T03:52:57.838Z,100733.34
2023-04-10T03:55:26.827Z,100727.56
2023-04-10T03:57:56.136Z,100744.59
2023-04-10T04:00:27.693Z,100739.00
2023-04-10T04:03:05.253Z,100736.25
2023-04-10T04:05:53.267Z,100730.88
2023-04-10T04:08:43.511Z,100739.34
2023-04-10T04:11:38.623Z,100727.38
2023-04-10T04:14:35.005Z,100734.63
2023-04-10T04:17:18.470Z,100719.28
2023-04-10T04:20:06.179Z,100729.81
2023-04-10T04:22:52.315Z,100727.78
2023-04-10T04:25:38.556Z,100716.59
2023-04-10T04:28:09.863Z,100725.31
2023-04-10T04:31:03.404Z,100726.97
2023-04-10T04:33:49.186Z,100722.47
2023-04-10T04:36:38.305Z,100722.75
2023-04-10T04:39:41.156Z,100723.97
2023-04-10T04:42:40.873Z,100723.19
2023-04-10T04:45:16.950Z,100727.06
2023-04-10T04:48:04.527Z,100721.44
2023-04-10T04:50:52.231Z,100727.09
2023-04-10T04:53:42.897Z,100726.53
2023-04-10T04:56:36.656Z,100724.72
2023-04-10T04:59:30.515Z,100725.59
2023-04-10T05:02:05.662Z,100731.94
2023-04-10T05:04:56.503Z,100727.75
2023-04-10T05:07:44.293Z,100730.19
2023-04-10T05:10:24.175Z,100722.00
2023-04-10T05:13:07.070Z,100724.31
2023-04-10T05:15:45.098Z,100734.94
2023-04-10T05:18:36.524Z,100740.03
2023-04-10T05:21:19.257Z,100730.50
2023-04-10T05:24:12.757Z,100745.59
2023-04-10T05:26:59.090Z,100736.03
2023-04-10T05:29:46.358Z,100731.13
2023-04-10T05:32:37.846Z,100740.25
2023-04-10T05:35:20.723Z,100719.97
2023-04-10T05:37:56.838Z,100739.38
2023-04-10T05:40:48.026Z,100731.31
2023-04-10T05:43:34.069Z,100733.50
2023-04-10T05:46:09.549Z,100736.69
2023-04-10T05:49:15.677Z,100738.88
2023-04-10T05:52:05.987Z,100739.06
2023-04-10T05:54:52.974Z,100740.56
2023-04-10T05:57:27.402Z,100743.13
2023-04-10T06:00:15.224Z,100745.47
2023-04-10T06:03:04.503Z,100741.13
2023-04-10T06:05:33.788Z,100744.84
2023-04-10T06:08:05.377Z,100746.59
2023-04-10T06:10:33.059Z,100737.91
2023-04-10T06:13:00.952Z,100746.59
2023-04-10T06:15:29.353Z,100743.16
2023-04-10T06:17:57.832Z,100741.38
2023-04-10T06:20:25.488Z,100745.47
2023-04-10T06:22:53.689Z,100743.25
2023-04-10T06:25:21.247Z,100752.53
2023-04-10T06:27:49.044Z,100746.16
2023-04-10T06:30:16.492Z,100748.84
2023-04-10T06:32:44.801Z,100740.59
2023-04-10T06:35:13.188Z,100744.94
2023-04-10T06:37:40.829Z,100747.47
2023-04-10T06:40:10.878Z,100752.31
2023-04-10T06:42:38.394Z,100749.66
2023-04-10T06:45:29.024Z,100756.19
2023-04-10T06:47:56.916Z,100754.09
2023-04-10T06:50:24.373Z,100761.03
2023-04-10T06:52:53.388Z,100758.47
2023-04-10T06:55:20.891Z,100758.72
2023-04-10T06:57:48.302Z,100759.78
2023-04-10T07:00:16.197Z,100757.50
2023-04-10T07:02:43.713Z,100753.94
2023-04-10T07:05:11.404Z,100764.09
2023-04-10T07:07:38.879Z,100760.44
2023-04-10T07:10:07.233Z,100763.09
2023-04-10T07:12:34.969Z,100760.59
2023-04-10T07:15:02.463Z,100762.81
2023-04-10T07:17:31.530Z,100754.31
2023-04-10T07:19:59.118Z,100772.78
2023-04-10T07:22:27.970Z,100763.75
2023-04-10T07:24:55.404Z,100764.31
2023-04-10T07:27:24.838Z,100764.84
2023-04-10T07:29:56.875Z,100762.81
2023-04-10T07:32:27.007Z,100765.84
2023-04-10T07:34:54.892Z,100760.31
2023-04-10T07:37:22.504Z,100765.38
2023-04-10T07:39:49.908Z,100767.72
2023-04-10T07:42:17.417Z,100770.28
2023-04-10T07:44:45.021Z,100773.91
2023-04-10T07:47:12.470Z,100773.97
2023-04-10T07:49:39.935Z,100761.84
2023-04-10T07:52:07.526Z,100770.78
2023-04-10T07:54:35.051Z,100769.34
2023-04-10T07:57:02.616Z,100743.63
2023-04-10T07:59:30.083Z,100757.13
2023-04-10T08:01:57.622Z,100755.50
2023-04-10T08:04:25.486Z,100748.50
2023-04-10T08:06:53.182Z,100751.19
2023-04-10T08:09:20.908Z,100745.91
2023-04-10T08:11:48.387Z,100754.47
2023-04-10T08:14:18.443Z,100745.00
2023-04-10T08:16:46.206Z,100751.88
2023-04-10T08:19:13.729Z,100737.63
2023-04-10T08:21:41.252Z,100747.00
2023-04-10T08:24:08.693Z,100742.44
2023-04-10T08:26:36.328Z,100735.94
2023-04-10T08:29:03.776Z,100739.84
2023-04-10T08:31:31.518Z,100730.25
2023-04-10T08:33:59.626Z,100729.38
2023-04-10T08:36:27.900Z,100739.84
2023-04-10T08:38:55.510Z,100738.13
2023-04-10T08:41:23.011Z,100738.00
2023-04-10T08:43:51.092Z,100734.22
2023-04-10T08:46:18.620Z,100734.66
2023-04-10T08:48:52.920Z,100733.91
2023-04-10T08:51:26.686Z,100729.75
2023-04-10T08:54:03.613Z,100734.00
2023-04-10T08:56:33.194Z,100732.69
2023-04-10T08:59:03.053Z,100721.44
2023-04-10T09:01:31.428Z,100737.94
2023-04-10T09:03:59.781Z,100729.31
2023-04-10T09:06:27.800Z,100731.81
2023-04-10T09:08:55.442Z,100729.03
2023-04-10T09:11:22.958Z,100727.63
2023-04-10T09:13:51.179Z,100727.22
2023-04-10T09:16:30.482Z,100723.09
2023-04-10T09:19:00.038Z,100721.53
2023-04-10T09:21:27.532Z,100711.84
2023-04-10T09:24:01.511Z,100710.13
2023-04-10T09:26:30.988Z,100712.75
2023-04-10T09:29:10.436Z,100723.03
2023-04-10T09:31:39.390Z,100714.66
2023-04-10T09:34:14.808Z,100711.44
2023-04-10T09:36:54.780Z,100707.63
2023-04-10T09:39:23.180Z,100715.84
2023-04-10T09:41:55.684Z,100709.00
2023-04-10T09:44:31.051Z,100711.22
2023-04-10T09:47:00.346Z,100720.34
2023-04-10T09:49:28.053Z,100717.38
2023-04-10T09:51:55.757Z,100716.09
2023-04-10T09:54:37.146Z,100717.16
2023-04-10T09:57:05.778Z,100711.41
2023-04-10T09:59:34.863Z,100716.75
2023-04-10T10:02:02.731Z,100716.53
2023-04-10T10:04:30.766Z,100706.84
2023-04-10T10:06:58.329Z,100703.66
2023-04-10T10:09:28.268Z,100707.34
2023-04-10T10:11:58.606Z,100699.84
2023-04-10T10:14:29.188Z,100706.06
2023-04-10T10:17:01.140Z,100703.50
2023-04-10T10:19:41.337Z,100708.59
2023-04-10T10:22:11.138Z,100699.75
2023-04-10T10:24:40.279Z,100704.00
2023-04-10T10:27:10.070Z,100699.25
2023-04-10T10:29:39.569Z,100695.47
2023-04-10T10:32:08.595Z,100682.41
2023-04-10T10:34:36.825Z,100682.09
2023-04-10T10:37:06.046Z,100676.34
2023-04-10T10:40:06.895Z,100677.06
2023-04-10T10:42:55.573Z,100681.75
2023-04-10T10:45:48.795Z,100674.63
2023-04-10T10:48:16.438Z,100673.25
2023-04-10T10:50:57.402Z,100664.03
2023-04-10T10:53:44.795Z,100665.16
2023-04-10T10:56:22.658Z,100672.16
2023-04-10T10:58:57.625Z,100676.81
2023-04-10T11:01:26.539Z,100675.38
2023-04-10T11:03:54.134Z,100673.78
2023-04-10T11:06:43.610Z,100666.38
2023-04-10T11:09:52.359Z,100670.25
2023-04-10T11:12:25.083Z,100663.19
2023-04-10T11:15:00.733Z,100671.56
2023-04-10T11:17:53.420Z,100664.00
2023-04-10T11:20:28.670Z,100663.78
2023-04-10T11:23:12.838Z,100661.75
2023-04-10T11:25:52.074Z,100655.47
2023-04-10T11:28:35.261Z,100652.13
2023-04-10T11:31:16.216Z,100654.34
2023-04-10T11:33:44.127Z,100651.69
2023-04-10T11:36:16.095Z,100646.28
2023-04-10T11:39:05.924Z,100654.31
2023-04-10T11:41:35.647Z,100661.53
2023-04-10T11:44:06.288Z,100653.47
2023-04-10T11:46:38.234Z,100666.25
2023-04-10T11:49:07.642Z,100666.25
2023-04-10T11:51:35.459Z,100658.63
2023-04-10T11:54:12.589Z,100670.75
2023-04-10T11:56:45.689Z,100667.91
2023-04-10T11:59:19.733Z,100662.28
2023-04-10T12:01:47.504Z,100664.53
2023-04-10T12:04:20.143Z,100664.13
2023-04-10T12:06:58.166Z,100667.06
2023-04-10T12:09:26.423Z,100663.03
2023-04-10T12:11:59.956Z,100662.44
2023-04-10T12:14:32.449Z,100663.81
2023-04-10T12:17:02.016Z,100666.56
2023-04-10T12:19:30.024Z,100667.09
2023-04-10T12:21:59.683Z,100669.25
2023-04-10T12:24:49.352Z,100665.66
2023-04-10T12:27:23.702Z,100666.91
2023-04-10T12:29:52.613Z,100672.94
2023-04-10T12:32:20.753Z,100672.94
2023-04-10T12:34:52.268Z,100671.63
2023-04-10T12:37:20.873Z,100666.75
2023-04-10T12:39:48.443Z,100660.19
2023-04-10T12:42:23.248Z,100675.28
2023-04-10T12:44:59.098Z,100675.72
2023-04-10T12:47:28.220Z,100676.06
2023-04-10T12:50:12.589Z,100674.19
2023-04-10T12:53:02.694Z,100678.09
2023-04-10T12:55:31.338Z,100666.88
2023-04-10T12:57:58.974Z,100668.97
2023-04-10T13:00:26.572Z,100673.00
2023-04-10T13:02:54.300Z,100667.28
2023-04-10T13:05:22.149Z,100670.06
2023-04-10T13:07:52.935Z,100674.50
2023-04-10T13:10:20.604Z,100669.47
2023-04-10T13:12:48.059Z,100675.97
2023-04-10T13:15:17.038Z,100673.19
2023-04-10T13:17:44.551Z,100681.78
2023-04-10T13:20:13.613Z,100692.38
2023-04-10T13:22:41.299Z,100672.38
2023-04-10T13:25:09.171Z,100676.63
2023-04-10T13:27:36.697Z,100687.50
2023-04-10T13:30:04.498Z,100688.75
2023-04-10T13:32:32.298Z,100686.03
2023-04-10T13:34:59.759Z,100678.41
2023-04-10T13:37:27.424Z,100683.25
2023-04-10T13:39:55.928Z,100681.13
2023-04-10T13:42:23.485Z,100680.97
2023-04-10T13:44:50.960Z,100663.53
2023-04-10T13:47:18.584Z,100666.66
2023-04-10T13:49:46.042Z,100668.59
2023-04-10T13:52:13.700Z,100657.81
2023-04-10T13:54:41.146Z,100665.06
2023-04-10T13:57:08.568Z,100660.88
2023-04-10T13:59:36.199Z,100658.91
2023-04-10T14:02:06.332Z,100660.34
2023-04-10T14:04:33.966Z,100654.06
2023-04-10T14:07:02.225Z,100648.25
2023-04-10T14:09:29.851Z,100659.28
2023-04-10T14:11:57.986Z,100654.56
2023-04-10T14:14:25.594Z,100658.34
2023-04-10T14:16:53.100Z,100657.72
2023-04-10T14:19:23.368Z,100654.03
2023-04-10T14:21:50.969Z,100648.91
2023-04-10T14:24:18.388Z,100647.66
2023-04-10T14:26:45.865Z,100646.31
2023-04-10T14:29:14.748Z,100646.63
2023-04-10T14:31:56.618Z,100651.63
2023-04-10T14:34:25.072Z,100635.19
2023-04-10T14:36:55.963Z,100639.66
2023-04-10T14:39:24.955Z,100635.44
2023-04-10T14:41:52.721Z,100643.19
2023-04-10T14:44:20.376Z,100640.66
2023-04-10T14:46:48.244Z,100633.44
2023-04-10T14:49:15.880Z,100637.81
2023-04-10T14:51:44.879Z,100639.47
2023-04-10T14:54:12.482Z,100632.50
2023-04-10T14:56:40.236Z,100636.25
2023-04-10T14:59:08.452Z,100637.03
2023-04-10T15:01:36.264Z,100634.31
2023-04-10T15:04:03.800Z,100624.47
2023-04-10T15:06:33.497Z,100626.13
2023-04-10T15:09:01.147Z,100636.75
2023-04-10T15:11:28.631Z,100627.13
2023-04-10T15:13:56.841Z,100625.19
2023-04-10T15:16:24.287Z,100625.72
2023-04-10T15:18:51.824Z,100621.78
2023-04-10T15:21:19.564Z,100623.06
2023-04-10T15:23:47.015Z,100614.50
2023-04-10T15:26:16.120Z,100613.97
2023-04-10T15:28:43.667Z,100607.25
2023-04-10T15:31:11.666Z,100614.22
2023-04-10T15:33:40.053Z,100611.44
2023-04-10T15:36:08.190Z,100614.81
2023-04-10T15:38:36.491Z,100604.19
2023-04-10T15:41:11.394Z,100612.69
2023-04-10T15:43:39.418Z,100611.25
2023-04-10T15:46:07.108Z,100601.41
2023-04-10T15:48:34.744Z,100608.13
2023-04-10T15:51:06.154Z,100607.06
2023-04-10T15:53:34.760Z,100604.75
2023-04-10T15:56:05.027Z,100611.31
2023-04-10T15:58:33.809Z,100610.03
2023-04-10T16:01:04.680Z,100589.97
2023-04-10T16:03:32.501Z,100606.25
2023-04-10T16:06:00.210Z,100607.03
2023-04-10T16:08:28.049Z,100603.34
2023-04-10T16:10:56.943Z,100604.19
2023-04-10T16:13:24.633Z,100600.59
2023-04-10T16:15:54.424Z,100607.53
2023-04-10T16:18:22.198Z,100605.50
2023-04-10T16:20:49.679Z,100596.63
2023-04-10T16:23:17.325Z,100608.63
2023-04-10T16:25:44.863Z,100610.72
2023-04-10T16:28:12.475Z,100604.31
2023-04-10T16:30:40.161Z,100597.19
2023-04-10T16:33:07.895Z,100604.78
2023-04-10T16:35:35.487Z,100601.00
2023-04-10T16:38:03.045Z,100598.38
2023-04-10T16:40:33.028Z,100600.13
2023-04-10T16:43:02.128Z,100598.31
2023-04-10T16:45:30.187Z,100600.44
2023-04-10T16:47:57.752Z,100596.03
2023-04-10T16:50:25.629Z,100600.00
2023-04-10T16:52:53.186Z,100599.72
2023-04-10T16:55:20.916Z,100590.13
2023-04-10T16:57:48.382Z,100593.47
2023-04-10T17:00:16.167Z,100592.28
2023-04-10T17:02:44.161Z,100591.25
2023-04-10T17:05:13.635Z,100592.22
2023-04-10T17:07:42.484Z,100586.13
2023-04-10T17:10:11.438Z,100582.81
2023-04-10T17:12:39.992Z,100596.56
2023-04-10T17:15:07.874Z,100585.38
2023-04-10T17:17:35.707Z,100581.84
2023-04-10T17:20:03.542Z,100584.34
2023-04-10T17:22:31.408Z,100589.66
2023-04-10T17:25:01.462Z,100589.66
2023-04-10T17:27:30.261Z,100579.09
2023-04-10T17:29:58.935Z,100597.28
2023-04-10T17:32:26.712Z,100585.97
2023-04-10T17:34:56.701Z,100592.88
2023-04-10T17:37:24.297Z,100581.72
2023-04-10T17:39:54.210Z,100589.22
2023-04-10T17:42:23.259Z,100584.94
2023-04-10T17:44:50.831Z,100583.06
2023-04-10T17:47:18.394Z,100583.06
2023-04-10T17:49:45.989Z,100583.81
2023-04-10T17:52:14.075Z,100577.69
2023-04-10T17:54:44.007Z,100580.19
2023-04-10T17:57:11.780Z,100584.53
2023-04-10T17:59:41.891Z,100573.38
2023-04-10T18:02:09.950Z,100581.00
2023-04-10T18:04:37.492Z,100586.44
2023-04-10T18:07:05.140Z,100589.09
2023-04-10T18:09:33.570Z,100579.81
2023-04-10T18:12:01.526Z,100579.03
2023-04-10T18:14:29.011Z,100577.31
2023-04-10T18:16:56.632Z,100575.63
2023-04-10T18:19:24.247Z,100575.41
2023-04-10T18:21:52.286Z,100568.38
2023-04-10T18:24:19.858Z,100569.97
2023-04-10T18:26:49.254Z,100569.97
2023-04-10T18:29:16.880Z,100577.84
2023-04-10T18:31:44.307Z,100576.00
2023-04-10T18:34:11.966Z,100572.63
2023-04-10T18:36:39.504Z,100569.91
2023-04-10T18:39:07.100Z,100573.38
2023-04-10T18:41:34.624Z,100571.53
2023-04-10T18:44:05.589Z,100571.47
2023-04-10T18:46:33.757Z,100559.22
2023-04-10T18:49:01.945Z,100564.34
2023-04-10T18:51:29.672Z,100566.91
2023-04-10T18:53:57.271Z,100559.84
2023-04-10T18:56:24.995Z,100562.44
2023-04-10T18:58:52.443Z,100560.91
2023-04-10T19:01:20.040Z,100561.78
2023-04-10T19:03:50.148Z,100547.69
2023-04-10T19:06:23.997Z,100559.97
2023-04-10T19:08:55.949Z,100558.91
2023-04-10T19:11:23.509Z,100546.75
2023-04-10T19:13:51.105Z,100554.53
2023-04-10T19:17:05.366Z,100554.00
2023-04-10T19:27:59.871Z,100546.06
2023-04-10T19:30:27.527Z,100551.88
2023-04-10T19:32:55.900Z,100552.53
2023-04-10T19:35:23.640Z,100545.56
2023-04-10T19:37:51.563Z,100545.63
2023-04-10T19:40:19.522Z,100552.53
2023-04-10T19:42:46.970Z,100545.78
2023-04-10T19:45:15.060Z,100546.81
2023-04-10T19:47:42.529Z,100541.72
2023-04-10T19:50:10.434Z,100544.44
2023-04-10T19:52:38.360Z,100537.59
2023-04-10T19:55:06.419Z,100538.56
2023-04-10T19:57:33.973Z,100536.94
2023-04-10T20:00:01.603Z,100533.25
2023-04-10T20:02:40.551Z,100536.88
2023-04-10T20:05:08.622Z,100536.88
2023-04-10T20:07:36.689Z,100543.03
2023-04-10T20:10:04.963Z,100546.63
2023-04-10T20:12:35.779Z,100548.44
2023-04-10T20:15:04.701Z,100547.84
2023-04-10T20:17:32.297Z,100539.38
2023-04-10T20:19:59.796Z,100542.78
2023-04-10T20:22:27.336Z,100541.91
2023-04-10T20:24:54.793Z,100543.66
2023-04-10T20:27:22.242Z,100532.34
2023-04-10T20:29:50.288Z,100540.19
2023-04-10T20:32:17.734Z,100538.63
2023-04-10T20:34:45.377Z,100531.66
2023-04-10T20:37:14.909Z,100528.44
2023-04-10T20:39:42.401Z,100534.72
2023-04-10T20:42:09.866Z,100532.13
2023-04-10T20:44:37.910Z,100537.72
2023-04-10T20:47:06.685Z,100537.19
2023-04-10T20:49:34.461Z,100531.06
2023-04-10T20:52:04.168Z,100535.47
2023-04-10T20:54:39.228Z,100536.34
2023-04-10T20:57:06.787Z,100531.31
2023-04-10T20:59:36.080Z,100542.78
2023-04-10T21:02:03.899Z,100549.63
2023-04-10T21:04:32.708Z,100537.50
2023-04-10T21:07:00.203Z,100540.00
2023-04-10T21:09:30.064Z,100546.84
2023-04-10T21:11:58.120Z,100547.72
2023-04-10T21:14:25.693Z,100542.44
2023-04-10T21:16:53.266Z,100535.31
2023-04-10T21:19:20.935Z,100541.44
2023-04-10T21:21:48.496Z,100543.88
2023-04-10T21:24:16.051Z,100536.09
2023-04-10T21:26:43.531Z,100535.47
2023-04-10T21:29:11.097Z,100533.09
2023-04-10T21:31:38.547Z,100531.47
2023-04-10T21:34:06.206Z,100532.41
2023-04-10T21:36:33.720Z,100533.97
2023-04-10T21:39:01.421Z,100527.66
2023-04-10T21:41:28.885Z,100516.44
2023-04-10T21:44:00.306Z,100521.50
2023-04-10T21:46:28.076Z,100529.28
2023-04-10T21:48:55.964Z,100518.13
2023-04-10T21:51:26.362Z,100519.00
2023-04-10T21:53:54.666Z,100525.09
2023-04-10T21:56:22.197Z,100522.50
2023-04-10T21:58:49.740Z,100519.94
2023-04-10T22:01:17.276Z,100522.59
2023-04-10T22:03:44.970Z,100518.47
2023-04-10T22:06:12.452Z,100517.63
2023-04-10T22:08:41.440Z,100515.06
2023-04-10T22:11:09.098Z,100515.28
2023-04-10T22:13:36.603Z,100523.88
2023-04-10T22:16:05.438Z,100524.81
2023-04-10T22:18:33.023Z,100528.22
2023-04-10T22:21:00.792Z,100524.81
2023-04-10T22:23:28.334Z,100523.88
2023-04-10T22:25:55.976Z,100515.22
2023-04-10T22:28:23.517Z,100511.81
2023-04-10T22:30:51.171Z,100511.00
2023-04-10T22:33:18.802Z,100510.88
2023-04-10T22:35:46.412Z,100515.06
2023-04-10T22:38:14.044Z,100508.97
2023-04-10T22:40:41.628Z,100501.19
2023-04-10T22:43:10.047Z,100506.41
2023-04-10T22:45:37.518Z,100502.75
2023-04-10T22:48:05.065Z,100508.78
2023-04-10T22:50:32.714Z,100500.94
2023-04-10T22:53:02.513Z,100507.78
2023-04-10T22:55:30.112Z,100504.31
2023-04-10T22:57:57.547Z,100499.09
2023-04-10T23:00:25.170Z,100501.69
2023-04-10T23:03:00.177Z,100502.56
2023-04-10T23:05:27.941Z,100497.47
2023-04-10T23:07:56.029Z,100491.94
2023-04-10T23:10:23.457Z,100492.88
2023-04-10T23:12:50.918Z,100499.78
2023-04-10T23:15:18.583Z,100492.75
2023-04-10T23:17:46.067Z,100491.78
2023-04-10T23:20:13.660Z,100490.09
2023-04-10T23:22:41.147Z,100495.22
2023-04-10T23:25:08.702Z,100495.09
2023-04-10T23:27:36.166Z,100488.06
2023-04-10T23:30:04.243Z,100497.56
2023-04-10T23:32:31.725Z,100484.53
2023-04-10T23:34:59.766Z,100496.34
2023-04-10T23:37:27.367Z,100495.44
2023-04-10T23:39:54.840Z,100498.28
2023-04-10T23:42:22.403Z,100494.56
2023-04-10T23:44:49.852Z,100490.16
2023-04-10T23:47:17.454Z,100495.91
2023-04-10T23:49:45.004Z,100495.69
2023-04-10T23:52:12.510Z,100492.97
2023-04-10T23:54:40.025Z,100494.50
2023-04-10T23:57:07.579Z,100498.41
2023-04-10T23:59:35.196Z,100494.78
